createdAt,value
2019-05-19T00:00:28.237Z,33.47
2019-05-19T00:02:56.468Z,36.33
2019-05-19T00:05:25.730Z,35.97
2019-05-19T00:07:55.121Z,35.40
2019-05-19T00:10:24.892Z,34.47
2019-05-19T00:12:53.005Z,34.53
2019-05-19T00:15:21.300Z,35.40
2019-05-19T00:17:49.481Z,36.97
2019-05-19T00:20:17.721Z,38.57
2019-05-19T00:22:45.935Z,40.67
2019-05-19T00:25:14.129Z,40.37
2019-05-19T00:27:42.525Z,35.77
2019-05-19T00:30:13.264Z,36.93
2019-05-19T00:32:42.426Z,36.40
2019-05-19T00:35:11.428Z,40.40
2019-05-19T00:37:39.543Z,38.03
2019-05-19T00:40:08.201Z,36.97
2019-05-19T00:42:36.311Z,38.87
2019-05-19T00:45:05.174Z,38.43
2019-05-19T00:47:33.444Z,38.43
2019-05-19T00:50:01.493Z,39.67
2019-05-19T00:52:30.154Z,38.47
2019-05-19T00:54:58.363Z,36.83
2019-05-19T00:57:26.962Z,37.93
2019-05-19T00:59:57.184Z,37.50
2019-05-19T01:02:26.231Z,37.40
2019-05-19T01:04:54.847Z,41.60
2019-05-19T01:07:23.109Z,38.17
2019-05-19T01:09:53.073Z,36.27
2019-05-19T01:12:21.326Z,38.90
2019-05-19T01:14:50.820Z,39.07
2019-05-19T01:17:20.378Z,39.17
2019-05-19T01:19:55.940Z,37.40
2019-05-19T01:22:24.113Z,37.80
2019-05-19T01:24:53.496Z,38.17
2019-05-19T01:27:25.587Z,36.87
2019-05-19T01:29:55.226Z,37.27
2019-05-19T01:32:24.601Z,38.07
2019-05-19T01:34:52.763Z,37.60
2019-05-19T01:37:21.142Z,37.97
2019-05-19T01:39:50.191Z,37.33
2019-05-19T01:42:19.324Z,35.53
2019-05-19T01:44:47.447Z,38.07
2019-05-19T01:47:15.954Z,38.37
2019-05-19T01:49:44.982Z,35.73
2019-05-19T01:52:13.840Z,34.47
2019-05-19T01:54:41.985Z,35.47
2019-05-19T01:57:11.043Z,36.77
2019-05-19T01:59:40.020Z,34.87
2019-05-19T02:02:08.118Z,36.20
2019-05-19T02:04:36.354Z,34.80
2019-05-19T02:07:04.575Z,33.57
2019-05-19T02:09:33.668Z,36.17
2019-05-19T02:12:01.890Z,32.83
2019-05-19T02:14:30.250Z,31.60
2019-05-19T02:17:00.039Z,30.57
2019-05-19T02:19:28.094Z,30.30
2019-05-19T02:21:56.737Z,32.57
2019-05-19T02:24:24.791Z,30.60
2019-05-19T02:26:54.545Z,30.43
2019-05-19T02:29:22.666Z,28.67
2019-05-19T02:31:52.029Z,28.37
2019-05-19T02:34:20.807Z,28.50
2019-05-19T02:36:49.275Z,26.47
2019-05-19T02:39:17.429Z,27.87
2019-05-19T02:41:47.396Z,26.90
2019-05-19T02:44:17.091Z,26.63
2019-05-19T02:46:46.374Z,29.57
2019-05-19T02:49:16.166Z,27.37
2019-05-19T02:51:45.888Z,26.20
2019-05-19T02:54:14.180Z,26.40
2019-05-19T02:56:44.716Z,25.37
2019-05-19T02:59:13.559Z,25.30
2019-05-19T03:02:04.518Z,24.33
2019-05-19T03:04:32.654Z,25.67
2019-05-19T03:07:00.776Z,24.97
2019-05-19T03:09:28.960Z,25.50
2019-05-19T03:11:58.167Z,24.20
2019-05-19T03:14:26.288Z,25.90
2019-05-19T03:16:54.637Z,24.47
2019-05-19T03:19:22.718Z,25.23
2019-05-19T03:21:51.836Z,24.77
2019-05-19T03:24:20.004Z,26.07
2019-05-19T03:26:48.136Z,24.07
2019-05-19T03:29:19.577Z,25.07
2019-05-19T03:31:54.891Z,25.97
2019-05-19T03:34:23.553Z,25.53
2019-05-19T03:36:51.609Z,22.70
2019-05-19T03:39:22.405Z,24.50
2019-05-19T03:41:50.451Z,23.50
2019-05-19T03:44:18.562Z,22.97
2019-05-19T03:46:47.603Z,24.60
2019-05-19T03:49:16.430Z,23.03
2019-05-19T03:51:44.583Z,22.37
2019-05-19T03:54:13.225Z,21.40
2019-05-19T03:56:42.379Z,22.40
2019-05-19T03:59:11.475Z,25.33
2019-05-19T04:01:39.643Z,23.70
2019-05-19T04:04:07.825Z,22.17
2019-05-19T04:06:35.922Z,24.97
2019-05-19T04:09:04.945Z,23.33
2019-05-19T04:11:32.991Z,22.27
2019-05-19T04:14:01.182Z,22.03
2019-05-19T04:16:29.606Z,21.30
2019-05-19T04:18:57.610Z,20.53
2019-05-19T04:21:26.201Z,20.53
2019-05-19T04:23:55.805Z,20.17
2019-05-19T04:26:24.713Z,19.67
2019-05-19T04:28:53.720Z,19.57
2019-05-19T04:31:21.795Z,18.83
2019-05-19T04:33:49.812Z,19.00
2019-05-19T04:36:19.219Z,20.03
2019-05-19T04:38:47.331Z,20.10
2019-05-19T04:41:15.394Z,20.17
2019-05-19T04:43:43.449Z,19.90
2019-05-19T04:46:12.530Z,19.20
2019-05-19T04:48:42.004Z,20.13
2019-05-19T04:51:10.142Z,19.07
2019-05-19T04:53:38.658Z,17.83
2019-05-19T04:56:07.584Z,19.17
2019-05-19T04:58:35.635Z,18.63
2019-05-19T05:01:03.712Z,19.33
2019-05-19T05:03:33.602Z,18.50
2019-05-19T05:06:03.477Z,19.67
2019-05-19T05:08:31.546Z,17.60
2019-05-19T05:11:00.853Z,17.73
2019-05-19T05:13:29.097Z,17.27
2019-05-19T05:15:57.166Z,22.00
2019-05-19T05:18:26.328Z,18.87
2019-05-19T05:20:55.164Z,18.27
2019-05-19T05:23:23.318Z,17.90
2019-05-19T05:25:51.431Z,17.17
2019-05-19T05:28:23.863Z,16.50
2019-05-19T05:30:52.357Z,18.33
2019-05-19T05:33:20.634Z,17.77
2019-05-19T05:35:48.826Z,16.37
2019-05-19T05:38:17.897Z,16.60
2019-05-19T05:40:46.266Z,16.83
2019-05-19T05:43:15.318Z,17.83
2019-05-19T05:45:44.333Z,16.97
2019-05-19T05:48:12.356Z,15.77
2019-05-19T05:50:40.728Z,17.27
2019-05-19T05:53:10.282Z,15.80
2019-05-19T05:55:38.829Z,17.90
2019-05-19T05:58:08.460Z,16.67
2019-05-19T06:00:36.715Z,17.07
2019-05-19T06:03:07.087Z,17.53
2019-05-19T06:05:37.024Z,17.60
2019-05-19T06:08:05.254Z,17.97
2019-05-19T06:10:33.377Z,16.60
2019-05-19T06:13:01.570Z,18.20
2019-05-19T06:15:29.737Z,17.17
2019-05-19T06:17:57.857Z,18.20
2019-05-19T06:20:25.881Z,17.20
2019-05-19T06:22:56.981Z,17.40
2019-05-19T06:25:26.749Z,17.40
2019-05-19T06:27:56.665Z,17.13
2019-05-19T06:30:24.706Z,17.60
2019-05-19T06:32:54.880Z,16.83
2019-05-19T06:35:23.021Z,16.27
2019-05-19T06:37:51.818Z,18.03
2019-05-19T06:40:21.451Z,16.57
2019-05-19T06:42:49.631Z,17.57
2019-05-19T06:45:18.908Z,19.03
2019-05-19T06:47:48.432Z,17.80
2019-05-19T06:50:28.841Z,17.63
2019-05-19T06:53:12.697Z,17.50
2019-05-19T06:55:26.995Z,18.53
2019-05-19T06:57:55.272Z,18.77
2019-05-19T07:00:23.833Z,16.77
2019-05-19T07:02:52.648Z,17.63
2019-05-19T07:05:21.649Z,19.77
2019-05-19T07:07:50.206Z,17.13
2019-05-19T07:10:19.245Z,17.70
2019-05-19T07:12:47.330Z,17.70
2019-05-19T07:15:15.782Z,16.60
2019-05-19T07:17:44.097Z,16.47
2019-05-19T07:20:12.757Z,17.17
2019-05-19T07:22:42.180Z,15.80
2019-05-19T07:25:10.182Z,15.80
2019-05-19T07:27:38.321Z,16.50
2019-05-19T07:30:07.167Z,15.03
2019-05-19T07:32:35.341Z,16.63
2019-05-19T07:35:03.415Z,15.63
2019-05-19T07:37:31.697Z,15.70
2019-05-19T07:39:59.846Z,15.70
2019-05-19T07:42:38.535Z,16.13
2019-05-19T07:45:06.972Z,14.97
2019-05-19T07:47:35.063Z,14.80
2019-05-19T07:50:03.909Z,14.53
2019-05-19T07:52:32.461Z,14.50
2019-05-19T07:55:00.430Z,13.33
2019-05-19T07:57:28.501Z,15.37
2019-05-19T07:59:56.542Z,13.00
2019-05-19T08:02:24.729Z,14.27
2019-05-19T08:04:52.836Z,13.07
2019-05-19T08:10:30.545Z,12.67
2019-05-19T08:12:58.942Z,12.60
2019-05-19T08:15:27.112Z,12.23
2019-05-19T08:17:55.425Z,11.63
2019-05-19T08:20:23.632Z,12.40
2019-05-19T08:22:51.861Z,12.53
2019-05-19T08:25:20.366Z,12.37
2019-05-19T08:27:48.583Z,12.00
2019-05-19T08:30:16.783Z,11.97
2019-05-19T08:32:44.979Z,12.50
2019-05-19T08:35:13.152Z,11.90
2019-05-19T08:37:41.220Z,12.80
2019-05-19T08:40:09.771Z,11.60
2019-05-19T08:42:38.556Z,12.53
2019-05-19T08:45:07.265Z,12.20
2019-05-19T08:47:35.847Z,12.47
2019-05-19T08:50:04.824Z,11.70
2019-05-19T08:55:43.178Z,11.33
2019-05-19T08:58:12.147Z,11.57
2019-05-19T09:00:40.851Z,11.80
2019-05-19T09:03:09.408Z,11.67
2019-05-19T09:05:37.711Z,11.47
2019-05-19T09:08:06.432Z,11.63
2019-05-19T09:10:34.592Z,12.67
2019-05-19T09:13:02.688Z,11.60
2019-05-19T09:15:30.836Z,12.33
2019-05-19T09:17:58.918Z,11.83
2019-05-19T09:20:27.030Z,11.70
2019-05-19T09:22:55.042Z,12.07
2019-05-19T09:25:25.619Z,12.83
2019-05-19T09:27:52.995Z,11.03
2019-05-19T09:30:21.253Z,11.23
2019-05-19T09:32:49.327Z,11.17
2019-05-19T09:35:17.504Z,10.17
2019-05-19T09:37:45.680Z,10.70
2019-05-19T09:40:13.924Z,10.47
2019-05-19T09:42:42.129Z,11.33
2019-05-19T09:45:10.875Z,11.30
2019-05-19T09:47:39.925Z,11.47
2019-05-19T09:50:09.180Z,11.50
2019-05-19T09:52:38.166Z,10.53
2019-05-19T09:55:27.701Z,11.60
2019-05-19T09:57:56.776Z,9.57
2019-05-19T10:00:25.013Z,9.80
2019-05-19T10:02:53.113Z,12.37
2019-05-19T10:05:21.613Z,9.40
2019-05-19T10:07:50.200Z,8.93
2019-05-19T10:10:23.173Z,9.90
2019-05-19T10:12:51.526Z,9.23
2019-05-19T10:15:19.724Z,10.13
2019-05-19T10:17:48.419Z,9.87
2019-05-19T10:20:17.708Z,9.27
2019-05-19T10:22:45.733Z,9.60
2019-05-19T10:25:22.963Z,10.63
2019-05-19T10:27:43.911Z,8.53
2019-05-19T10:30:12.648Z,9.23
2019-05-19T10:32:40.820Z,9.50
2019-05-19T10:35:08.930Z,9.17
2019-05-19T10:37:37.116Z,9.17
2019-05-19T10:40:05.879Z,8.70
2019-05-19T10:42:33.965Z,8.30
2019-05-19T10:45:02.003Z,9.10
2019-05-19T10:47:30.120Z,9.07
2019-05-19T10:49:58.175Z,8.97
2019-05-19T10:52:26.255Z,8.77
2019-05-19T10:54:54.385Z,9.63
2019-05-19T10:57:22.582Z,8.60
2019-05-19T10:59:50.720Z,9.27
2019-05-19T11:02:18.757Z,9.30
2019-05-19T11:04:46.791Z,8.50
2019-05-19T11:07:14.890Z,9.37
2019-05-19T11:09:43.957Z,8.07
2019-05-19T11:12:12.027Z,7.73
2019-05-19T11:14:40.098Z,7.30
2019-05-19T11:17:08.275Z,8.47
2019-05-19T11:19:36.429Z,8.20
2019-05-19T11:22:04.631Z,8.10
2019-05-19T11:24:32.840Z,8.23
2019-05-19T11:27:00.876Z,8.83
2019-05-19T11:29:29.170Z,8.50
2019-05-19T11:31:57.283Z,8.40
2019-05-19T11:34:25.316Z,8.23
2019-05-19T11:36:54.081Z,8.20
2019-05-19T11:39:22.215Z,8.03
2019-05-19T11:41:50.350Z,8.80
2019-05-19T11:44:18.291Z,8.43
2019-05-19T11:46:46.327Z,8.27
2019-05-19T11:49:14.418Z,9.60
2019-05-19T11:51:42.463Z,10.37
2019-05-19T11:54:10.540Z,9.57
2019-05-19T11:56:38.569Z,9.43
2019-05-19T11:59:06.657Z,9.43
2019-05-19T12:01:34.768Z,10.07
2019-05-19T12:04:02.865Z,8.77
2019-05-19T12:06:39.258Z,9.77
2019-05-19T12:09:00.623Z,9.23
2019-05-19T12:11:28.676Z,9.83
2019-05-19T12:13:56.712Z,9.13
2019-05-19T12:16:24.782Z,9.23
2019-05-19T12:18:52.847Z,9.13
2019-05-19T12:21:20.878Z,9.07
2019-05-19T12:23:48.919Z,9.70
2019-05-19T12:26:23.111Z,10.17
2019-05-19T12:28:46.722Z,8.20
2019-05-19T12:31:14.750Z,9.70
2019-05-19T12:33:51.538Z,8.90
2019-05-19T12:36:12.880Z,9.13
2019-05-19T12:38:40.939Z,8.90
2019-05-19T12:41:08.965Z,9.30
2019-05-19T12:43:37.123Z,9.70
2019-05-19T12:46:15.480Z,8.77
2019-05-19T12:48:34.951Z,9.93
2019-05-19T12:51:02.967Z,9.47
2019-05-19T12:53:31.113Z,8.93
2019-05-19T12:55:59.188Z,9.43
2019-05-19T13:01:37.096Z,9.10
2019-05-19T13:04:05.286Z,9.77
2019-05-19T13:06:33.315Z,11.30
2019-05-19T13:09:01.464Z,9.30
2019-05-19T13:11:53.228Z,9.70
2019-05-19T13:14:21.417Z,9.47
2019-05-19T13:16:49.452Z,8.73
2019-05-19T13:19:17.536Z,8.93
2019-05-19T13:21:45.579Z,10.80
2019-05-19T13:24:13.638Z,9.90
2019-05-19T13:26:55.661Z,10.17
2019-05-19T13:29:11.438Z,11.87
2019-05-19T13:31:39.597Z,11.27
2019-05-19T13:34:07.648Z,10.87
2019-05-19T13:36:35.698Z,11.80
2019-05-19T13:39:04.505Z,9.83
2019-05-19T13:41:32.579Z,9.87
2019-05-19T13:44:01.622Z,9.77
2019-05-19T13:46:29.855Z,10.30
2019-05-19T13:48:57.922Z,10.50
2019-05-19T13:51:25.975Z,11.20
2019-05-19T13:53:54.311Z,10.57
2019-05-19T13:56:22.782Z,10.20
2019-05-19T13:58:50.833Z,10.70
2019-05-19T14:01:28.203Z,10.47
2019-05-19T14:03:52.164Z,10.73
2019-05-19T14:06:19.957Z,9.40
2019-05-19T14:08:48.033Z,9.30
2019-05-19T14:11:16.698Z,9.97
2019-05-19T14:13:44.843Z,10.50
2019-05-19T14:16:12.808Z,9.83
2019-05-19T14:18:40.912Z,8.80
2019-05-19T14:21:09.005Z,10.50
2019-05-19T14:23:37.133Z,9.17
2019-05-19T14:26:05.182Z,10.30
2019-05-19T14:28:33.238Z,9.73
2019-05-19T14:31:01.297Z,10.47
2019-05-19T14:33:29.393Z,9.40
2019-05-19T14:35:57.649Z,9.90
2019-05-19T14:38:25.707Z,9.50
2019-05-19T14:40:53.762Z,10.17
2019-05-19T14:43:22.543Z,10.00
2019-05-19T14:45:50.728Z,10.97
2019-05-19T14:48:19.202Z,10.13
2019-05-19T14:50:47.217Z,9.23
2019-05-19T14:53:15.207Z,9.77
2019-05-19T14:55:43.247Z,9.80
2019-05-19T14:58:11.266Z,9.83
2019-05-19T15:00:39.364Z,8.70
2019-05-19T15:03:07.478Z,9.23
2019-05-19T15:05:36.506Z,9.67
2019-05-19T15:08:05.016Z,8.97
2019-05-19T15:10:33.981Z,11.57
2019-05-19T15:13:02.808Z,10.00
2019-05-19T15:15:30.881Z,9.30
2019-05-19T15:17:58.939Z,9.20
2019-05-19T15:20:27.678Z,10.00
2019-05-19T15:26:06.249Z,9.33
2019-05-19T15:31:55.924Z,9.10
2019-05-19T15:37:45.777Z,8.63
2019-05-19T15:40:14.099Z,9.40
2019-05-19T15:42:42.320Z,8.87
2019-05-19T15:48:20.405Z,8.67
2019-05-19T15:50:48.701Z,10.23
2019-05-19T15:53:16.945Z,9.20
2019-05-19T15:55:45.017Z,9.27
2019-05-19T15:58:16.593Z,9.30
2019-05-19T16:00:43.489Z,10.10
2019-05-19T16:03:12.347Z,9.93
2019-05-19T16:05:40.984Z,9.90
2019-05-19T16:08:09.280Z,9.27
2019-05-19T16:10:37.608Z,9.73
2019-05-19T16:13:05.734Z,10.10
2019-05-19T16:15:34.319Z,8.63
2019-05-19T16:18:02.517Z,11.03
2019-05-19T16:20:30.917Z,9.00
2019-05-19T16:23:20.013Z,9.90
2019-05-19T16:25:48.256Z,10.00
2019-05-19T16:28:28.658Z,8.97
2019-05-19T16:30:46.017Z,9.07
2019-05-19T16:33:14.114Z,9.33
2019-05-19T16:35:42.153Z,8.70
2019-05-19T16:38:10.313Z,8.73
2019-05-19T16:40:38.871Z,8.07
2019-05-19T16:43:07.753Z,8.60
2019-05-19T16:45:36.215Z,8.37
2019-05-19T16:48:04.673Z,8.40
2019-05-19T16:50:32.898Z,8.77
2019-05-19T16:53:01.211Z,9.00
2019-05-19T16:55:30.555Z,9.10
2019-05-19T16:57:58.990Z,7.97
2019-05-19T17:00:28.543Z,8.70
2019-05-19T17:02:57.671Z,8.40
2019-05-19T17:05:26.596Z,9.40
2019-05-19T17:07:56.400Z,9.23
2019-05-19T17:10:25.365Z,8.87
2019-05-19T17:12:54.085Z,9.13
2019-05-19T17:15:22.568Z,9.50
2019-05-19T17:17:51.244Z,9.27
2019-05-19T17:20:21.859Z,9.90
2019-05-19T17:22:50.629Z,8.80
2019-05-19T17:25:19.888Z,9.13
2019-05-19T17:27:48.578Z,9.03
2019-05-19T17:30:17.588Z,9.63
2019-05-19T17:32:46.799Z,9.00
2019-05-19T17:35:15.987Z,9.40
2019-05-19T17:37:45.317Z,9.33
2019-05-19T17:40:34.399Z,10.30
2019-05-19T17:43:03.085Z,9.53
2019-05-19T17:45:31.331Z,9.60
2019-05-19T17:48:09.583Z,8.63
2019-05-19T17:50:33.600Z,9.47
2019-05-19T17:53:02.764Z,9.30
2019-05-19T17:55:33.153Z,10.50
2019-05-19T17:58:01.899Z,10.13
2019-05-19T18:00:38.098Z,10.07
2019-05-19T18:03:07.346Z,9.67
2019-05-19T18:05:36.333Z,10.40
2019-05-19T18:08:05.617Z,9.37
2019-05-19T18:10:34.180Z,10.47
2019-05-19T18:13:03.458Z,10.33
2019-05-19T18:15:31.869Z,10.77
2019-05-19T18:18:00.274Z,9.63
2019-05-19T18:20:28.848Z,10.13
2019-05-19T18:22:57.339Z,10.03
2019-05-19T18:25:25.837Z,9.63
2019-05-19T18:27:55.083Z,11.07
2019-05-19T18:30:23.908Z,9.93
2019-05-19T18:36:01.590Z,10.77
2019-05-19T18:38:30.352Z,10.83
2019-05-19T18:40:58.661Z,10.97
2019-05-19T18:43:27.937Z,10.97
2019-05-19T18:45:56.785Z,11.67
2019-05-19T18:48:26.009Z,10.83
2019-05-19T18:50:55.290Z,11.03
2019-05-19T18:53:24.150Z,10.93
2019-05-19T18:55:53.562Z,12.97
2019-05-19T18:58:22.840Z,10.93
2019-05-19T19:00:52.672Z,10.73
2019-05-19T19:03:21.423Z,11.27
2019-05-19T19:05:51.029Z,11.00
2019-05-19T19:08:19.920Z,10.30
2019-05-19T19:10:48.707Z,10.90
2019-05-19T19:13:16.814Z,11.07
2019-05-19T19:15:45.916Z,10.13
2019-05-19T19:18:15.124Z,12.17
2019-05-19T19:20:43.905Z,10.80
2019-05-19T19:23:12.278Z,11.07
2019-05-19T19:25:40.798Z,11.57
2019-05-19T19:28:09.260Z,11.40
2019-05-19T19:30:37.894Z,12.03
2019-05-19T19:33:06.544Z,11.53
2019-05-19T19:35:39.337Z,11.20
2019-05-19T19:38:05.564Z,11.87
2019-05-19T19:40:34.667Z,11.20
2019-05-19T19:43:04.184Z,11.60
2019-05-19T19:45:33.038Z,12.00
2019-05-19T19:48:02.843Z,11.13
2019-05-19T19:50:32.246Z,12.20
2019-05-19T19:53:01.215Z,12.50
2019-05-19T19:55:29.928Z,12.43
2019-05-19T19:57:58.310Z,12.30
2019-05-19T20:00:45.728Z,11.90
2019-05-19T20:03:15.028Z,12.90
2019-05-19T20:05:44.077Z,12.43
2019-05-19T20:08:13.263Z,13.53
2019-05-19T20:10:42.566Z,13.23
2019-05-19T20:13:13.491Z,13.50
2019-05-19T20:15:42.261Z,12.40
2019-05-19T20:18:12.593Z,13.97
2019-05-19T20:20:41.974Z,12.77
2019-05-19T20:23:13.358Z,12.83
2019-05-19T20:25:42.777Z,13.20
2019-05-19T20:28:12.021Z,13.63
2019-05-19T20:30:41.428Z,14.03
2019-05-19T20:33:09.658Z,13.13
2019-05-19T20:35:38.682Z,14.90
2019-05-19T20:38:07.673Z,14.67
2019-05-19T20:40:36.345Z,14.53
2019-05-19T20:43:05.425Z,13.87
2019-05-19T20:45:34.721Z,14.33
2019-05-19T20:48:03.463Z,13.87
2019-05-19T20:50:31.652Z,15.10
2019-05-19T20:52:59.856Z,14.63
2019-05-19T20:55:28.233Z,15.53
2019-05-19T20:57:56.606Z,14.70
2019-05-19T21:00:24.704Z,14.40
2019-05-19T21:02:53.035Z,14.73
2019-05-19T21:05:21.399Z,15.83
2019-05-19T21:07:50.233Z,15.57
2019-05-19T21:10:18.622Z,16.97
2019-05-19T21:12:47.721Z,17.20
2019-05-19T21:15:16.774Z,17.77
2019-05-19T21:17:44.819Z,18.27
2019-05-19T21:20:13.106Z,19.13
2019-05-19T21:22:41.356Z,21.10
2019-05-19T21:25:09.941Z,19.20
2019-05-19T21:27:39.159Z,19.97
2019-05-19T21:30:08.266Z,21.23
2019-05-19T21:32:36.497Z,19.70
2019-05-19T21:35:04.941Z,20.87
2019-05-19T21:37:33.743Z,21.53
2019-05-19T21:40:03.297Z,21.50
2019-05-19T21:42:32.437Z,20.47
2019-05-19T21:45:02.094Z,19.77
2019-05-19T21:47:32.046Z,21.10
2019-05-19T21:50:00.183Z,19.83
2019-05-19T21:52:28.488Z,19.13
2019-05-19T21:54:57.643Z,20.90
2019-05-19T21:57:27.178Z,19.37
2019-05-19T21:59:56.393Z,20.30
2019-05-19T22:02:24.603Z,20.87
2019-05-19T22:04:53.069Z,20.90
2019-05-19T22:07:34.712Z,21.37
2019-05-19T22:10:03.453Z,21.40
2019-05-19T22:12:32.928Z,21.53
2019-05-19T22:15:01.638Z,22.00
2019-05-19T22:17:29.809Z,21.70
2019-05-19T22:19:58.674Z,21.13
2019-05-19T22:22:26.718Z,21.93
2019-05-19T22:24:54.746Z,20.83
2019-05-19T22:27:22.899Z,22.10
2019-05-19T22:29:51.095Z,22.43
2019-05-19T22:32:20.094Z,21.70
2019-05-19T22:34:48.219Z,22.40
2019-05-19T22:37:16.399Z,22.70
2019-05-19T22:39:45.643Z,22.03
2019-05-19T22:42:13.680Z,22.57
2019-05-19T22:44:41.756Z,22.83
2019-05-19T22:47:09.826Z,23.07
2019-05-19T22:49:37.927Z,23.03
2019-05-19T22:52:05.994Z,22.47
2019-05-19T22:54:34.378Z,23.97
2019-05-19T22:57:02.527Z,23.97
2019-05-19T22:59:30.636Z,24.03
2019-05-19T23:01:58.843Z,24.47
2019-05-19T23:04:26.938Z,22.77
2019-05-19T23:06:55.007Z,24.30
2019-05-19T23:09:24.421Z,22.23
2019-05-19T23:11:53.166Z,23.90
2019-05-19T23:14:21.593Z,24.87
2019-05-19T23:16:50.825Z,24.33
2019-05-19T23:19:18.942Z,27.07
2019-05-19T23:21:47.546Z,25.97
2019-05-19T23:24:15.598Z,26.20
2019-05-19T23:26:44.518Z,25.83
2019-05-19T23:29:13.442Z,27.13
2019-05-19T23:31:42.555Z,27.67
2019-05-19T23:34:11.199Z,26.47
2019-05-19T23:36:39.702Z,26.37
2019-05-19T23:39:08.736Z,27.00
2019-05-19T23:41:37.611Z,27.07
2019-05-19T23:44:05.758Z,26.53
2019-05-19T23:46:34.759Z,26.73
2019-05-19T23:49:02.899Z,26.53
2019-05-19T23:51:30.956Z,28.33
2019-05-19T23:53:59.552Z,27.00
2019-05-19T23:56:28.456Z,27.73
2019-05-19T23:58:56.492Z,26.03
